sensor_id;sensor_type;location;lat;lon;timestamp;P1;durP1;ratioP1;P2;durP2;ratioP2
2944;SDS011;1482;51.398;7.128;2024-01-30T00:01:37;10.30;;;7.73;;
2944;SDS011;1482;51.398;7.128;2024-01-30T00:04:02;18.70;;;8.03;;
2944;SDS011;1482;51.398;7.128;2024-01-30T00:06:28;8.60;;;7.07;;
2944;SDS011;1482;51.398;7.128;2024-01-30T00:08:54;10.70;;;8.20;;
2944;SDS011;1482;51.398;7.128;2024-01-30T00:11:19;8.83;;;6.80;;
2944;SDS011;1482;51.398;7.128;2024-01-30T00:13:45;9.20;;;7.00;;
2944;SDS011;1482;51.398;7.128;2024-01-30T00:16:23;8.50;;;6.90;;
2944;SDS011;1482;51.398;7.128;2024-01-30T00:18:50;8.97;;;8.03;;
2944;SDS011;1482;51.398;7.128;2024-01-30T00:21:16;17.00;;;7.57;;
2944;SDS011;1482;51.398;7.128;2024-01-30T00:23:42;12.93;;;7.80;;
2944;SDS011;1482;51.398;7.128;2024-01-30T00:26:08;9.33;;;7.57;;
2944;SDS011;1482;51.398;7.128;2024-01-30T00:28:34;8.17;;;7.33;;
2944;SDS011;1482;51.398;7.128;2024-01-30T00:30:59;10.87;;;7.50;;
2944;SDS011;1482;51.398;7.128;2024-01-30T00:33:25;8.80;;;7.43;;
2944;SDS011;1482;51.398;7.128;2024-01-30T00:35:50;12.70;;;7.93;;
2944;SDS011;1482;51.398;7.128;2024-01-30T00:38:16;11.87;;;8.10;;
2944;SDS011;1482;51.398;7.128;2024-01-30T00:40:42;13.50;;;8.73;;
2944;SDS011;1482;51.398;7.128;2024-01-30T00:43:08;11.53;;;7.67;;
2944;SDS011;1482;51.398;7.128;2024-01-30T00:45:33;12.10;;;8.10;;
2944;SDS011;1482;51.398;7.128;2024-01-30T00:48:02;13.57;;;8.47;;
2944;SDS011;1482;51.398;7.128;2024-01-30T00:50:28;9.90;;;8.10;;
2944;SDS011;1482;51.398;7.128;2024-01-30T00:52:53;9.20;;;7.17;;
2944;SDS011;1482;51.398;7.128;2024-01-30T00:55:19;12.53;;;7.73;;
2944;SDS011;1482;51.398;7.128;2024-01-30T00:57:44;10.03;;;7.20;;
2944;SDS011;1482;51.398;7.128;2024-01-30T01:00:10;13.97;;;8.63;;
2944;SDS011;1482;51.398;7.128;2024-01-30T01:02:37;9.27;;;8.23;;
2944;SDS011;1482;51.398;7.128;2024-01-30T01:05:04;10.93;;;7.63;;
2944;SDS011;1482;51.398;7.128;2024-01-30T01:07:30;10.87;;;8.47;;
2944;SDS011;1482;51.398;7.128;2024-01-30T01:09:55;10.00;;;7.83;;
2944;SDS011;1482;51.398;7.128;2024-01-30T01:12:21;11.57;;;8.37;;
2944;SDS011;1482;51.398;7.128;2024-01-30T01:14:46;12.57;;;8.33;;
2944;SDS011;1482;51.398;7.128;2024-01-30T01:17:12;10.40;;;8.03;;
2944;SDS011;1482;51.398;7.128;2024-01-30T01:19:37;11.00;;;8.10;;
2944;SDS011;1482;51.398;7.128;2024-01-30T01:22:03;12.43;;;7.90;;
2944;SDS011;1482;51.398;7.128;2024-01-30T01:24:32;13.77;;;9.07;;
2944;SDS011;1482;51.398;7.128;2024-01-30T01:26:58;10.53;;;8.10;;
2944;SDS011;1482;51.398;7.128;2024-01-30T01:29:24;11.30;;;9.07;;
2944;SDS011;1482;51.398;7.128;2024-01-30T01:31:57;12.20;;;9.43;;
2944;SDS011;1482;51.398;7.128;2024-01-30T01:34:23;8.97;;;7.23;;
2944;SDS011;1482;51.398;7.128;2024-01-30T01:36:49;9.37;;;7.10;;
2944;SDS011;1482;51.398;7.128;2024-01-30T01:39:16;11.77;;;7.73;;
2944;SDS011;1482;51.398;7.128;2024-01-30T01:41:41;9.40;;;8.10;;
2944;SDS011;1482;51.398;7.128;2024-01-30T01:44:07;9.20;;;7.77;;
2944;SDS011;1482;51.398;7.128;2024-01-30T01:46:33;12.57;;;7.77;;
2944;SDS011;1482;51.398;7.128;2024-01-30T01:49:00;11.80;;;8.47;;
2944;SDS011;1482;51.398;7.128;2024-01-30T01:51:28;10.10;;;7.33;;
2944;SDS011;1482;51.398;7.128;2024-01-30T01:53:55;9.50;;;7.73;;
2944;SDS011;1482;51.398;7.128;2024-01-30T01:56:22;10.60;;;7.43;;
2944;SDS011;1482;51.398;7.128;2024-01-30T01:58:48;14.40;;;7.77;;
2944;SDS011;1482;51.398;7.128;2024-01-30T02:01:16;11.57;;;8.47;;
2944;SDS011;1482;51.398;7.128;2024-01-30T02:03:45;12.30;;;8.50;;
2944;SDS011;1482;51.398;7.128;2024-01-30T02:06:11;9.77;;;7.70;;
2944;SDS011;1482;51.398;7.128;2024-01-30T02:08:38;12.70;;;7.77;;
2944;SDS011;1482;51.398;7.128;2024-01-30T02:11:04;12.63;;;9.17;;
2944;SDS011;1482;51.398;7.128;2024-01-30T02:13:30;19.77;;;7.73;;
2944;SDS011;1482;51.398;7.128;2024-01-30T02:15:55;17.93;;;8.07;;
2944;SDS011;1482;51.398;7.128;2024-01-30T02:18:22;11.43;;;8.33;;
2944;SDS011;1482;51.398;7.128;2024-01-30T02:20:50;9.53;;;8.53;;
2944;SDS011;1482;51.398;7.128;2024-01-30T02:23:19;8.63;;;7.70;;
2944;SDS011;1482;51.398;7.128;2024-01-30T02:25:45;10.43;;;7.97;;
2944;SDS011;1482;51.398;7.128;2024-01-30T02:28:13;12.37;;;7.53;;
2944;SDS011;1482;51.398;7.128;2024-01-30T02:30:39;21.47;;;8.93;;
2944;SDS011;1482;51.398;7.128;2024-01-30T02:33:05;13.17;;;8.23;;
2944;SDS011;1482;51.398;7.128;2024-01-30T02:35:31;13.00;;;8.40;;
2944;SDS011;1482;51.398;7.128;2024-01-30T02:37:57;12.30;;;9.00;;
2944;SDS011;1482;51.398;7.128;2024-01-30T02:40:22;12.83;;;7.60;;
2944;SDS011;1482;51.398;7.128;2024-01-30T02:42:48;9.70;;;7.60;;
2944;SDS011;1482;51.398;7.128;2024-01-30T02:45:13;10.00;;;8.27;;
2944;SDS011;1482;51.398;7.128;2024-01-30T02:47:39;9.20;;;8.07;;
2944;SDS011;1482;51.398;7.128;2024-01-30T02:50:05;12.30;;;8.20;;
2944;SDS011;1482;51.398;7.128;2024-01-30T02:52:31;9.03;;;7.57;;
2944;SDS011;1482;51.398;7.128;2024-01-30T02:54:57;11.83;;;7.00;;
2944;SDS011;1482;51.398;7.128;2024-01-30T02:57:23;15.13;;;8.53;;
2944;SDS011;1482;51.398;7.128;2024-01-30T02:59:48;8.93;;;7.17;;
2944;SDS011;1482;51.398;7.128;2024-01-30T03:02:14;11.60;;;7.17;;
2944;SDS011;1482;51.398;7.128;2024-01-30T03:04:42;11.87;;;7.73;;
2944;SDS011;1482;51.398;7.128;2024-01-30T03:07:08;12.20;;;6.93;;
2944;SDS011;1482;51.398;7.128;2024-01-30T03:09:36;8.50;;;6.87;;
2944;SDS011;1482;51.398;7.128;2024-01-30T03:12:02;8.60;;;7.20;;
2944;SDS011;1482;51.398;7.128;2024-01-30T03:14:30;9.20;;;7.70;;
2944;SDS011;1482;51.398;7.128;2024-01-30T03:16:56;13.23;;;7.60;;
2944;SDS011;1482;51.398;7.128;2024-01-30T03:19:22;9.20;;;7.00;;
2944;SDS011;1482;51.398;7.128;2024-01-30T03:21:48;12.63;;;7.27;;
2944;SDS011;1482;51.398;7.128;2024-01-30T03:24:13;8.70;;;7.70;;
2944;SDS011;1482;51.398;7.128;2024-01-30T03:26:39;11.50;;;8.87;;
2944;SDS011;1482;51.398;7.128;2024-01-30T03:29:04;8.20;;;7.40;;
2944;SDS011;1482;51.398;7.128;2024-01-30T03:31:30;7.27;;;6.50;;
2944;SDS011;1482;51.398;7.128;2024-01-30T03:33:56;7.63;;;6.50;;
2944;SDS011;1482;51.398;7.128;2024-01-30T03:36:21;8.43;;;7.47;;
2944;SDS011;1482;51.398;7.128;2024-01-30T03:38:47;8.90;;;6.73;;
2944;SDS011;1482;51.398;7.128;2024-01-30T03:41:12;8.70;;;7.27;;
2944;SDS011;1482;51.398;7.128;2024-01-30T03:43:38;9.23;;;7.17;;
2944;SDS011;1482;51.398;7.128;2024-01-30T03:46:03;8.37;;;6.47;;
2944;SDS011;1482;51.398;7.128;2024-01-30T03:48:29;8.00;;;6.93;;
2944;SDS011;1482;51.398;7.128;2024-01-30T03:50:55;9.13;;;6.83;;
2944;SDS011;1482;51.398;7.128;2024-01-30T03:53:21;8.37;;;7.27;;
2944;SDS011;1482;51.398;7.128;2024-01-30T03:55:47;9.47;;;6.83;;
2944;SDS011;1482;51.398;7.128;2024-01-30T03:58:12;8.33;;;6.23;;
2944;SDS011;1482;51.398;7.128;2024-01-30T04:00:38;8.50;;;6.70;;
2944;SDS011;1482;51.398;7.128;2024-01-30T04:03:03;7.50;;;6.60;;
2944;SDS011;1482;51.398;7.128;2024-01-30T04:05:29;9.77;;;6.90;;
2944;SDS011;1482;51.398;7.128;2024-01-30T04:07:55;7.47;;;6.47;;
2944;SDS011;1482;51.398;7.128;2024-01-30T04:10:20;9.70;;;6.20;;
2944;SDS011;1482;51.398;7.128;2024-01-30T04:12:46;9.70;;;6.00;;
2944;SDS011;1482;51.398;7.128;2024-01-30T04:15:11;7.70;;;5.60;;
2944;SDS011;1482;51.398;7.128;2024-01-30T04:17:38;7.87;;;6.67;;
2944;SDS011;1482;51.398;7.128;2024-01-30T04:20:04;6.40;;;5.30;;
2944;SDS011;1482;51.398;7.128;2024-01-30T04:22:30;11.73;;;6.57;;
2944;SDS011;1482;51.398;7.128;2024-01-30T04:24:56;8.63;;;5.43;;
2944;SDS011;1482;51.398;7.128;2024-01-30T04:27:21;6.77;;;5.50;;
2944;SDS011;1482;51.398;7.128;2024-01-30T04:29:47;6.33;;;5.60;;
2944;SDS011;1482;51.398;7.128;2024-01-30T04:32:13;9.20;;;6.40;;
2944;SDS011;1482;51.398;7.128;2024-01-30T04:34:38;8.20;;;6.00;;
2944;SDS011;1482;51.398;7.128;2024-01-30T04:37:04;8.40;;;5.63;;
2944;SDS011;1482;51.398;7.128;2024-01-30T04:39:29;6.43;;;5.77;;
2944;SDS011;1482;51.398;7.128;2024-01-30T04:41:58;7.23;;;6.03;;
2944;SDS011;1482;51.398;7.128;2024-01-30T04:44:24;11.70;;;5.53;;
2944;SDS011;1482;51.398;7.128;2024-01-30T04:46:49;6.73;;;6.03;;
2944;SDS011;1482;51.398;7.128;2024-01-30T04:49:15;7.27;;;5.67;;
2944;SDS011;1482;51.398;7.128;2024-01-30T04:51:40;7.20;;;6.50;;
2944;SDS011;1482;51.398;7.128;2024-01-30T04:54:06;7.90;;;5.67;;
2944;SDS011;1482;51.398;7.128;2024-01-30T04:56:31;6.20;;;5.17;;
2944;SDS011;1482;51.398;7.128;2024-01-30T04:58:57;7.53;;;5.20;;
2944;SDS011;1482;51.398;7.128;2024-01-30T05:01:23;8.47;;;6.50;;
2944;SDS011;1482;51.398;7.128;2024-01-30T05:03:48;5.60;;;5.10;;
2944;SDS011;1482;51.398;7.128;2024-01-30T05:06:23;7.27;;;6.03;;
2944;SDS011;1482;51.398;7.128;2024-01-30T05:08:49;7.80;;;6.27;;
2944;SDS011;1482;51.398;7.128;2024-01-30T05:11:15;7.17;;;5.60;;
2944;SDS011;1482;51.398;7.128;2024-01-30T05:13:40;10.80;;;6.57;;
2944;SDS011;1482;51.398;7.128;2024-01-30T05:16:06;9.60;;;6.03;;
2944;SDS011;1482;51.398;7.128;2024-01-30T05:18:31;9.57;;;7.00;;
2944;SDS011;1482;51.398;7.128;2024-01-30T05:20:57;7.83;;;5.57;;
2944;SDS011;1482;51.398;7.128;2024-01-30T05:23:22;7.23;;;6.53;;
2944;SDS011;1482;51.398;7.128;2024-01-30T05:25:48;12.30;;;5.83;;
2944;SDS011;1482;51.398;7.128;2024-01-30T05:28:13;8.47;;;7.43;;
2944;SDS011;1482;51.398;7.128;2024-01-30T05:30:39;6.10;;;5.47;;
2944;SDS011;1482;51.398;7.128;2024-01-30T05:33:04;6.83;;;6.00;;
2944;SDS011;1482;51.398;7.128;2024-01-30T05:35:30;9.10;;;6.03;;
2944;SDS011;1482;51.398;7.128;2024-01-30T05:37:56;8.70;;;6.30;;
2944;SDS011;1482;51.398;7.128;2024-01-30T05:40:21;6.80;;;6.00;;
2944;SDS011;1482;51.398;7.128;2024-01-30T05:42:47;8.37;;;6.17;;
2944;SDS011;1482;51.398;7.128;2024-01-30T05:45:13;11.43;;;8.10;;
2944;SDS011;1482;51.398;7.128;2024-01-30T05:47:38;8.87;;;5.77;;
2944;SDS011;1482;51.398;7.128;2024-01-30T05:50:04;9.10;;;5.70;;
2944;SDS011;1482;51.398;7.128;2024-01-30T05:52:30;10.50;;;5.40;;
2944;SDS011;1482;51.398;7.128;2024-01-30T05:54:56;10.63;;;6.37;;
2944;SDS011;1482;51.398;7.128;2024-01-30T05:57:21;8.90;;;6.40;;
2944;SDS011;1482;51.398;7.128;2024-01-30T05:59:47;8.20;;;5.33;;
2944;SDS011;1482;51.398;7.128;2024-01-30T06:02:13;11.37;;;6.07;;
2944;SDS011;1482;51.398;7.128;2024-01-30T06:04:39;11.13;;;5.40;;
2944;SDS011;1482;51.398;7.128;2024-01-30T06:07:04;8.40;;;6.00;;
2944;SDS011;1482;51.398;7.128;2024-01-30T06:09:33;6.37;;;5.40;;
2944;SDS011;1482;51.398;7.128;2024-01-30T06:11:58;9.13;;;5.57;;
2944;SDS011;1482;51.398;7.128;2024-01-30T06:14:24;9.57;;;6.10;;
2944;SDS011;1482;51.398;7.128;2024-01-30T06:16:49;10.20;;;5.73;;
2944;SDS011;1482;51.398;7.128;2024-01-30T06:19:17;7.83;;;6.57;;
2944;SDS011;1482;51.398;7.128;2024-01-30T06:21:42;6.37;;;5.77;;
2944;SDS011;1482;51.398;7.128;2024-01-30T06:24:10;8.63;;;5.20;;
2944;SDS011;1482;51.398;7.128;2024-01-30T06:26:35;6.23;;;5.50;;
2944;SDS011;1482;51.398;7.128;2024-01-30T06:29:01;8.47;;;5.97;;
2944;SDS011;1482;51.398;7.128;2024-01-30T06:31:26;7.60;;;5.93;;
2944;SDS011;1482;51.398;7.128;2024-01-30T06:33:52;7.13;;;6.20;;
2944;SDS011;1482;51.398;7.128;2024-01-30T06:36:18;6.60;;;5.87;;
2944;SDS011;1482;51.398;7.128;2024-01-30T06:38:43;7.40;;;5.63;;
2944;SDS011;1482;51.398;7.128;2024-01-30T06:41:09;8.63;;;6.20;;
2944;SDS011;1482;51.398;7.128;2024-01-30T06:43:34;8.90;;;5.47;;
2944;SDS011;1482;51.398;7.128;2024-01-30T06:46:03;6.70;;;6.00;;
2944;SDS011;1482;51.398;7.128;2024-01-30T06:48:28;8.50;;;6.43;;
2944;SDS011;1482;51.398;7.128;2024-01-30T06:50:54;6.20;;;5.60;;
2944;SDS011;1482;51.398;7.128;2024-01-30T06:53:20;7.50;;;5.90;;
2944;SDS011;1482;51.398;7.128;2024-01-30T06:55:45;6.10;;;5.50;;
2944;SDS011;1482;51.398;7.128;2024-01-30T06:58:11;6.03;;;5.40;;
2944;SDS011;1482;51.398;7.128;2024-01-30T07:00:37;10.93;;;6.27;;
2944;SDS011;1482;51.398;7.128;2024-01-30T07:03:03;11.50;;;5.73;;
2944;SDS011;1482;51.398;7.128;2024-01-30T07:05:28;6.50;;;5.10;;
2944;SDS011;1482;51.398;7.128;2024-01-30T07:07:54;6.90;;;5.40;;
2944;SDS011;1482;51.398;7.128;2024-01-30T07:10:19;7.60;;;5.40;;
2944;SDS011;1482;51.398;7.128;2024-01-30T07:12:45;10.73;;;6.70;;
2944;SDS011;1482;51.398;7.128;2024-01-30T07:15:11;10.43;;;5.80;;
2944;SDS011;1482;51.398;7.128;2024-01-30T07:17:37;7.93;;;5.53;;
2944;SDS011;1482;51.398;7.128;2024-01-30T07:20:02;6.13;;;5.60;;
2944;SDS011;1482;51.398;7.128;2024-01-30T07:22:29;9.53;;;6.50;;
2944;SDS011;1482;51.398;7.128;2024-01-30T07:24:55;12.60;;;6.30;;
2944;SDS011;1482;51.398;7.128;2024-01-30T07:27:21;11.67;;;5.50;;
2944;SDS011;1482;51.398;7.128;2024-01-30T07:29:46;13.40;;;5.93;;
2944;SDS011;1482;51.398;7.128;2024-01-30T07:32:12;8.70;;;7.00;;
2944;SDS011;1482;51.398;7.128;2024-01-30T07:34:37;11.17;;;5.73;;
2944;SDS011;1482;51.398;7.128;2024-01-30T07:37:03;10.93;;;7.20;;
2944;SDS011;1482;51.398;7.128;2024-01-30T07:39:28;11.20;;;6.30;;
2944;SDS011;1482;51.398;7.128;2024-01-30T07:41:54;9.60;;;6.80;;
2944;SDS011;1482;51.398;7.128;2024-01-30T07:44:20;8.70;;;6.00;;
2944;SDS011;1482;51.398;7.128;2024-01-30T07:46:46;10.07;;;6.63;;
2944;SDS011;1482;51.398;7.128;2024-01-30T07:49:11;10.73;;;6.07;;
2944;SDS011;1482;51.398;7.128;2024-01-30T07:51:39;8.20;;;5.50;;
2944;SDS011;1482;51.398;7.128;2024-01-30T07:54:04;11.80;;;6.70;;
2944;SDS011;1482;51.398;7.128;2024-01-30T08:03:21;6.20;;;5.60;;
2944;SDS011;1482;51.398;7.128;2024-01-30T08:05:47;5.87;;;5.27;;
2944;SDS011;1482;51.398;7.128;2024-01-30T08:08:12;7.77;;;6.10;;
2944;SDS011;1482;51.398;7.128;2024-01-30T08:10:38;6.80;;;5.37;;
2944;SDS011;1482;51.398;7.128;2024-01-30T08:13:03;5.80;;;5.30;;
2944;SDS011;1482;51.398;7.128;2024-01-30T08:15:29;7.97;;;6.17;;
2944;SDS011;1482;51.398;7.128;2024-01-30T08:17:54;6.40;;;5.80;;
2944;SDS011;1482;51.398;7.128;2024-01-30T08:20:23;7.23;;;5.13;;
2944;SDS011;1482;51.398;7.128;2024-01-30T08:22:49;6.20;;;5.60;;
2944;SDS011;1482;51.398;7.128;2024-01-30T08:25:14;8.27;;;6.07;;
2944;SDS011;1482;51.398;7.128;2024-01-30T08:27:40;8.87;;;7.00;;
2944;SDS011;1482;51.398;7.128;2024-01-30T08:30:06;9.60;;;6.60;;
2944;SDS011;1482;51.398;7.128;2024-01-30T08:32:32;9.63;;;7.00;;
2944;SDS011;1482;51.398;7.128;2024-01-30T08:34:57;10.83;;;5.60;;
2944;SDS011;1482;51.398;7.128;2024-01-30T08:37:23;7.03;;;5.63;;
2944;SDS011;1482;51.398;7.128;2024-01-30T08:39:49;6.80;;;4.73;;
2944;SDS011;1482;51.398;7.128;2024-01-30T08:42:14;9.97;;;6.30;;
2944;SDS011;1482;51.398;7.128;2024-01-30T08:44:40;9.57;;;6.20;;
2944;SDS011;1482;51.398;7.128;2024-01-30T08:47:06;12.53;;;6.50;;
2944;SDS011;1482;51.398;7.128;2024-01-30T08:49:31;9.93;;;6.20;;
2944;SDS011;1482;51.398;7.128;2024-01-30T08:51:57;8.50;;;6.00;;
2944;SDS011;1482;51.398;7.128;2024-01-30T08:54:23;12.07;;;5.57;;
2944;SDS011;1482;51.398;7.128;2024-01-30T08:56:49;7.67;;;5.80;;
2944;SDS011;1482;51.398;7.128;2024-01-30T08:59:14;8.37;;;5.90;;
2944;SDS011;1482;51.398;7.128;2024-01-30T09:01:40;6.93;;;5.70;;
2944;SDS011;1482;51.398;7.128;2024-01-30T09:04:05;8.00;;;5.53;;
2944;SDS011;1482;51.398;7.128;2024-01-30T09:06:31;12.00;;;6.10;;
2944;SDS011;1482;51.398;7.128;2024-01-30T09:08:57;7.43;;;6.23;;
2944;SDS011;1482;51.398;7.128;2024-01-30T09:11:23;9.50;;;5.53;;
2944;SDS011;1482;51.398;7.128;2024-01-30T09:13:48;8.90;;;6.40;;
2944;SDS011;1482;51.398;7.128;2024-01-30T09:16:14;11.60;;;5.67;;
2944;SDS011;1482;51.398;7.128;2024-01-30T09:18:41;10.03;;;6.00;;
2944;SDS011;1482;51.398;7.128;2024-01-30T09:21:06;9.83;;;8.53;;
2944;SDS011;1482;51.398;7.128;2024-01-30T09:23:32;9.03;;;7.03;;
2944;SDS011;1482;51.398;7.128;2024-01-30T09:25:58;7.53;;;5.60;;
2944;SDS011;1482;51.398;7.128;2024-01-30T09:28:24;7.70;;;5.80;;
2944;SDS011;1482;51.398;7.128;2024-01-30T09:30:49;8.00;;;5.40;;
2944;SDS011;1482;51.398;7.128;2024-01-30T09:33:15;8.57;;;6.40;;
2944;SDS011;1482;51.398;7.128;2024-01-30T09:35:41;7.03;;;5.30;;
2944;SDS011;1482;51.398;7.128;2024-01-30T09:38:06;10.40;;;6.27;;
2944;SDS011;1482;51.398;7.128;2024-01-30T09:40:32;6.67;;;5.40;;
2944;SDS011;1482;51.398;7.128;2024-01-30T09:42:57;7.43;;;5.70;;
2944;SDS011;1482;51.398;7.128;2024-01-30T09:45:25;7.63;;;5.90;;
2944;SDS011;1482;51.398;7.128;2024-01-30T09:47:51;6.33;;;5.73;;
2944;SDS011;1482;51.398;7.128;2024-01-30T09:50:17;9.70;;;6.27;;
2944;SDS011;1482;51.398;7.128;2024-01-30T09:52:44;7.40;;;6.30;;
2944;SDS011;1482;51.398;7.128;2024-01-30T09:55:10;9.17;;;5.37;;
2944;SDS011;1482;51.398;7.128;2024-01-30T09:57:36;6.27;;;5.63;;
2944;SDS011;1482;51.398;7.128;2024-01-30T10:00:02;7.40;;;6.07;;
2944;SDS011;1482;51.398;7.128;2024-01-30T10:02:29;8.50;;;6.40;;
2944;SDS011;1482;51.398;7.128;2024-01-30T10:04:59;13.03;;;6.07;;
2944;SDS011;1482;51.398;7.128;2024-01-30T10:07:25;8.37;;;5.83;;
2944;SDS011;1482;51.398;7.128;2024-01-30T10:09:52;12.87;;;6.60;;
2944;SDS011;1482;51.398;7.128;2024-01-30T10:12:18;9.60;;;6.40;;
2944;SDS011;1482;51.398;7.128;2024-01-30T10:14:44;10.43;;;5.87;;
2944;SDS011;1482;51.398;7.128;2024-01-30T10:17:09;10.63;;;5.40;;
2944;SDS011;1482;51.398;7.128;2024-01-30T10:19:37;10.13;;;5.70;;
2944;SDS011;1482;51.398;7.128;2024-01-30T10:22:06;7.97;;;6.33;;
2944;SDS011;1482;51.398;7.128;2024-01-30T10:24:36;9.50;;;5.50;;
2944;SDS011;1482;51.398;7.128;2024-01-30T10:27:02;6.40;;;5.60;;
2944;SDS011;1482;51.398;7.128;2024-01-30T10:29:27;7.70;;;5.53;;
2944;SDS011;1482;51.398;7.128;2024-01-30T10:31:57;7.73;;;5.93;;
2944;SDS011;1482;51.398;7.128;2024-01-30T10:34:24;14.63;;;6.17;;
2944;SDS011;1482;51.398;7.128;2024-01-30T10:36:49;10.50;;;5.93;;
2944;SDS011;1482;51.398;7.128;2024-01-30T10:39:18;10.57;;;6.90;;
2944;SDS011;1482;51.398;7.128;2024-01-30T10:41:46;9.27;;;6.47;;
2944;SDS011;1482;51.398;7.128;2024-01-30T10:44:13;8.10;;;5.10;;
2944;SDS011;1482;51.398;7.128;2024-01-30T10:46:43;9.17;;;4.67;;
2944;SDS011;1482;51.398;7.128;2024-01-30T10:49:14;8.23;;;5.83;;
2944;SDS011;1482;51.398;7.128;2024-01-30T10:51:41;7.30;;;5.67;;
2944;SDS011;1482;51.398;7.128;2024-01-30T10:54:07;10.30;;;6.00;;
2944;SDS011;1482;51.398;7.128;2024-01-30T10:56:34;7.63;;;6.30;;
2944;SDS011;1482;51.398;7.128;2024-01-30T10:59:00;9.80;;;5.00;;
2944;SDS011;1482;51.398;7.128;2024-01-30T11:01:26;9.97;;;5.73;;
2944;SDS011;1482;51.398;7.128;2024-01-30T11:03:53;12.60;;;6.83;;
2944;SDS011;1482;51.398;7.128;2024-01-30T11:06:27;11.63;;;6.80;;
2944;SDS011;1482;51.398;7.128;2024-01-30T11:09:02;9.07;;;6.20;;
2944;SDS011;1482;51.398;7.128;2024-01-30T11:11:29;10.00;;;6.27;;
2944;SDS011;1482;51.398;7.128;2024-01-30T11:13:54;7.73;;;6.20;;
2944;SDS011;1482;51.398;7.128;2024-01-30T11:16:20;13.40;;;6.87;;
2944;SDS011;1482;51.398;7.128;2024-01-30T11:18:49;8.57;;;6.53;;
2944;SDS011;1482;51.398;7.128;2024-01-30T11:21:18;10.70;;;5.53;;
2944;SDS011;1482;51.398;7.128;2024-01-30T11:23:43;10.27;;;5.77;;
2944;SDS011;1482;51.398;7.128;2024-01-30T11:26:12;7.20;;;6.00;;
2944;SDS011;1482;51.398;7.128;2024-01-30T11:28:38;6.57;;;5.20;;
2944;SDS011;1482;51.398;7.128;2024-01-30T11:31:06;8.37;;;6.10;;
2944;SDS011;1482;51.398;7.128;2024-01-30T11:33:32;9.40;;;6.33;;
2944;SDS011;1482;51.398;7.128;2024-01-30T11:35:59;9.73;;;5.97;;
2944;SDS011;1482;51.398;7.128;2024-01-30T11:38:26;7.90;;;5.80;;
2944;SDS011;1482;51.398;7.128;2024-01-30T11:40:53;9.83;;;6.20;;
2944;SDS011;1482;51.398;7.128;2024-01-30T11:43:20;14.90;;;6.43;;
2944;SDS011;1482;51.398;7.128;2024-01-30T11:45:46;11.00;;;6.50;;
2944;SDS011;1482;51.398;7.128;2024-01-30T11:48:12;11.57;;;6.40;;
2944;SDS011;1482;51.398;7.128;2024-01-30T11:50:38;13.70;;;7.63;;
2944;SDS011;1482;51.398;7.128;2024-01-30T11:53:05;12.07;;;6.83;;
2944;SDS011;1482;51.398;7.128;2024-01-30T11:55:31;11.07;;;6.87;;
2944;SDS011;1482;51.398;7.128;2024-01-30T11:57:57;8.87;;;6.73;;
2944;SDS011;1482;51.398;7.128;2024-01-30T12:00:23;9.60;;;6.40;;
2944;SDS011;1482;51.398;7.128;2024-01-30T12:02:49;14.20;;;6.90;;
2944;SDS011;1482;51.398;7.128;2024-01-30T12:05:18;16.80;;;6.73;;
2944;SDS011;1482;51.398;7.128;2024-01-30T12:07:45;12.53;;;7.77;;
2944;SDS011;1482;51.398;7.128;2024-01-30T12:10:12;15.50;;;7.37;;
2944;SDS011;1482;51.398;7.128;2024-01-30T12:12:39;19.67;;;7.30;;
2944;SDS011;1482;51.398;7.128;2024-01-30T12:15:06;10.60;;;6.00;;
2944;SDS011;1482;51.398;7.128;2024-01-30T12:17:32;11.47;;;6.30;;
2944;SDS011;1482;51.398;7.128;2024-01-30T12:20:09;17.00;;;7.37;;
2944;SDS011;1482;51.398;7.128;2024-01-30T12:22:42;15.67;;;7.87;;
2944;SDS011;1482;51.398;7.128;2024-01-30T12:25:12;12.97;;;7.17;;
2944;SDS011;1482;51.398;7.128;2024-01-30T12:27:39;13.30;;;6.90;;
2944;SDS011;1482;51.398;7.128;2024-01-30T12:30:08;12.20;;;7.70;;
2944;SDS011;1482;51.398;7.128;2024-01-30T12:32:39;16.30;;;6.80;;
2944;SDS011;1482;51.398;7.128;2024-01-30T12:35:09;13.17;;;6.50;;
2944;SDS011;1482;51.398;7.128;2024-01-30T12:37:39;9.97;;;7.30;;
2944;SDS011;1482;51.398;7.128;2024-01-30T12:40:06;9.43;;;7.37;;
2944;SDS011;1482;51.398;7.128;2024-01-30T12:42:33;14.10;;;7.70;;
2944;SDS011;1482;51.398;7.128;2024-01-30T12:44:59;16.20;;;7.57;;
2944;SDS011;1482;51.398;7.128;2024-01-30T12:47:24;20.13;;;7.70;;
2944;SDS011;1482;51.398;7.128;2024-01-30T12:49:51;14.13;;;8.40;;
2944;SDS011;1482;51.398;7.128;2024-01-30T12:52:20;11.37;;;7.93;;
2944;SDS011;1482;51.398;7.128;2024-01-30T12:54:46;10.47;;;7.27;;
2944;SDS011;1482;51.398;7.128;2024-01-30T12:57:12;14.40;;;7.50;;
2944;SDS011;1482;51.398;7.128;2024-01-30T12:59:38;16.10;;;7.50;;
2944;SDS011;1482;51.398;7.128;2024-01-30T13:02:04;12.07;;;8.00;;
2944;SDS011;1482;51.398;7.128;2024-01-30T13:04:30;18.70;;;7.43;;
2944;SDS011;1482;51.398;7.128;2024-01-30T13:06:56;14.70;;;9.20;;
2944;SDS011;1482;51.398;7.128;2024-01-30T13:09:22;14.03;;;8.90;;
2944;SDS011;1482;51.398;7.128;2024-01-30T13:11:48;12.97;;;8.13;;
2944;SDS011;1482;51.398;7.128;2024-01-30T13:14:14;13.20;;;8.20;;
2944;SDS011;1482;51.398;7.128;2024-01-30T13:16:40;12.70;;;7.53;;
2944;SDS011;1482;51.398;7.128;2024-01-30T13:19:05;16.60;;;8.43;;
2944;SDS011;1482;51.398;7.128;2024-01-30T13:21:31;17.50;;;8.70;;
2944;SDS011;1482;51.398;7.128;2024-01-30T13:23:57;18.40;;;9.20;;
2944;SDS011;1482;51.398;7.128;2024-01-30T13:26:22;13.73;;;7.70;;
2944;SDS011;1482;51.398;7.128;2024-01-30T13:28:48;11.63;;;7.73;;
2944;SDS011;1482;51.398;7.128;2024-01-30T13:31:14;18.33;;;8.47;;
2944;SDS011;1482;51.398;7.128;2024-01-30T13:33:40;13.33;;;7.37;;
2944;SDS011;1482;51.398;7.128;2024-01-30T13:36:06;9.57;;;7.50;;
2944;SDS011;1482;51.398;7.128;2024-01-30T13:38:32;13.97;;;8.57;;
2944;SDS011;1482;51.398;7.128;2024-01-30T13:40:58;14.23;;;7.83;;
2944;SDS011;1482;51.398;7.128;2024-01-30T13:43:24;12.07;;;7.67;;
2944;SDS011;1482;51.398;7.128;2024-01-30T13:45:49;17.70;;;7.60;;
2944;SDS011;1482;51.398;7.128;2024-01-30T13:48:15;11.00;;;7.63;;
2944;SDS011;1482;51.398;7.128;2024-01-30T13:50:41;12.50;;;8.00;;
2944;SDS011;1482;51.398;7.128;2024-01-30T13:53:06;10.33;;;7.60;;
2944;SDS011;1482;51.398;7.128;2024-01-30T13:55:32;9.93;;;8.73;;
2944;SDS011;1482;51.398;7.128;2024-01-30T13:57:57;13.90;;;8.47;;
2944;SDS011;1482;51.398;7.128;2024-01-30T14:00:23;10.50;;;7.90;;
2944;SDS011;1482;51.398;7.128;2024-01-30T14:02:50;12.80;;;7.93;;
2944;SDS011;1482;51.398;7.128;2024-01-30T14:05:16;15.13;;;9.77;;
2944;SDS011;1482;51.398;7.128;2024-01-30T14:07:42;13.90;;;8.60;;
2944;SDS011;1482;51.398;7.128;2024-01-30T14:10:09;14.83;;;9.07;;
2944;SDS011;1482;51.398;7.128;2024-01-30T14:12:36;11.90;;;7.80;;
2944;SDS011;1482;51.398;7.128;2024-01-30T14:15:01;11.10;;;8.47;;
2944;SDS011;1482;51.398;7.128;2024-01-30T14:17:27;17.10;;;9.27;;
2944;SDS011;1482;51.398;7.128;2024-01-30T14:19:52;12.90;;;8.30;;
2944;SDS011;1482;51.398;7.128;2024-01-30T14:22:18;12.80;;;8.00;;
2944;SDS011;1482;51.398;7.128;2024-01-30T14:24:44;16.73;;;9.20;;
2944;SDS011;1482;51.398;7.128;2024-01-30T14:27:09;13.80;;;7.80;;
2944;SDS011;1482;51.398;7.128;2024-01-30T14:29:35;11.93;;;8.37;;
2944;SDS011;1482;51.398;7.128;2024-01-30T14:32:01;10.50;;;8.87;;
2944;SDS011;1482;51.398;7.128;2024-01-30T14:34:27;13.30;;;8.07;;
2944;SDS011;1482;51.398;7.128;2024-01-30T14:36:52;12.60;;;7.67;;
2944;SDS011;1482;51.398;7.128;2024-01-30T14:39:18;13.80;;;10.20;;
2944;SDS011;1482;51.398;7.128;2024-01-30T14:41:43;12.57;;;7.87;;
2944;SDS011;1482;51.398;7.128;2024-01-30T14:44:09;12.73;;;9.00;;
2944;SDS011;1482;51.398;7.128;2024-01-30T14:46:35;24.00;;;12.17;;
2944;SDS011;1482;51.398;7.128;2024-01-30T14:49:02;23.23;;;15.57;;
2944;SDS011;1482;51.398;7.128;2024-01-30T14:51:30;11.40;;;10.07;;
2944;SDS011;1482;51.398;7.128;2024-01-30T14:53:56;12.50;;;9.77;;
2944;SDS011;1482;51.398;7.128;2024-01-30T14:56:21;10.80;;;8.17;;
2944;SDS011;1482;51.398;7.128;2024-01-30T14:58:48;14.33;;;9.83;;
2944;SDS011;1482;51.398;7.128;2024-01-30T15:01:13;12.10;;;8.20;;
2944;SDS011;1482;51.398;7.128;2024-01-30T15:03:39;20.70;;;8.93;;
2944;SDS011;1482;51.398;7.128;2024-01-30T15:06:05;16.03;;;9.33;;
2944;SDS011;1482;51.398;7.128;2024-01-30T15:08:34;12.53;;;8.80;;